Nearby METAR Reports


KANE - Minneapls/Blaine, Minnesota, USA
Distance from station: ESE 8mi, 13km
Updated: 04/05/2020 4:55am
Clear
Clear
 Wind from calm
Wind: Calm
Temperature: 27°F , -3°C
Dew Point: 25°F , -4°C
Humidity: 93%
Barometer: 30.16 inHg , 1021.3 hPa
Clouds: Clear
Visibility: 10 miles , 16 km
2020/04/05 09:55 KANE 050955Z AUTO 00000KT 10SM CLR M03/M04 A3016 RMK AO2
KMIC - Mnpls/Crystal, Minnesota, USA
Distance from station: S 8mi, 14km
Updated: 04/05/2020 4:53am
Clear
Clear
 Wind from calm
Wind: Calm
Temperature: 27°F , -3°C
Dew Point: 21°F , -6°C
Humidity: 80%
Barometer: 30.15 inHg , 1021 hPa
Clouds: Clear
Visibility: 8 miles , 13 km
2020/04/05 09:53 KMIC 050953Z AUTO 00000KT 8SM CLR M03/M06 A3015 RMK AO2 SLP217 T10331061
 
KMSP - Minneapolis, Minnesota, USA
Distance from station: SSE 22mi, 35km
Updated: 04/05/2020 4:53am
Clear
Clear
 Wind from calm
Wind: Calm
Temperature: 30°F , -1°C
Dew Point: 23°F , -5°C
Humidity: 75%
Barometer: 30.17 inHg , 1021.7 hPa
Clouds: Clear
Visibility: 10 miles , 16 km
2020/04/05 09:53 KMSP 050953Z 00000KT 10SM CLR M01/M05 A3017 RMK AO2 SLP225 T10111050
KSTP - St. Paul, Minnesota, USA
Distance from station: SE 23mi, 38km
Updated: 04/05/2020 4:53am
Clear
Clear
 Wind from calm
Wind: Calm
Temperature: 30°F , -1°C
Dew Point: 25°F , -4°C
Humidity: 80%
Barometer: 30.18 inHg , 1022 hPa
Clouds: Clear
Visibility: 10 miles , 16 km
2020/04/05 09:53 KSTP 050953Z AUTO 00000KT 10SM CLR M01/M04 A3018 RMK AO2 SLP225 T10111044 $
 
KCFE - Buffalo Muni, Minnesota, USA
Distance from station: W 24mi, 38km
Updated: 04/05/2020 4:56am
Partly cloudy
Partly cloudy
 
Temperature: 27°F , -3°C
Dew Point: 23°F , -5°C
Humidity: 86%
Barometer: 30.16 inHg , 1021.3 hPa
Clouds: Partly cloudy
Visibility: 10 miles , 16 km
Cloud details: Partly cloudy 11000 ft
2020/04/05 09:56 KCFE 050956Z 10SM SCT110 M03/M05 A3016 RMK AO2 T10311050
KFCM - Mnpls/Flying Cld, Minnesota, USA
Distance from station: S 25mi, 40km
Updated: 04/05/2020 4:53am
Clear
Clear
 Wind from E
Wind: E 3 mph , 6 km/h
Temperature: 28°F , -2°C
Dew Point: 25°F , -4°C
Humidity: 86%
Barometer: 30.15 inHg , 1021 hPa
Clouds: Clear
Visibility: 8 miles , 13 km
2020/04/05 09:53 KFCM 050953Z AUTO 08003KT 8SM CLR M02/M04 A3015 RMK AO2 SLP217 T10171044
 
KCBG - Cambridge Muni, Minnesota, USA
Distance from station: N 27mi, 43km
Updated: 04/05/2020 4:55am
Clear
Clear
 Wind from calm
Wind: Calm
Temperature: 27°F , -3°C
Dew Point: 19°F , -7°C
Humidity: 74%
Barometer: 30.16 inHg , 1021.3 hPa
Clouds: Clear
Visibility: 10 miles , 16 km
2020/04/05 09:55 KCBG 050955Z AUTO 00000KT 10SM CLR M03/M07 A3016 RMK AO2
KPNM - Princeton Muni, Minnesota, USA
Distance from station: NNW 27mi, 44km
Updated: 04/05/2020 4:55am
Partly cloudy
Partly cloudy
 Wind from calm
Wind: Calm
Temperature: 27°F , -3°C
Dew Point: 21°F , -6°C
Humidity: 80%
Barometer: 30.14 inHg , 1020.7 hPa
Clouds: Partly cloudy
Visibility: 10 miles , 16 km
Cloud details: Partly cloudy 12000 ft
2020/04/05 09:55 KPNM 050955Z AUTO 00000KT 10SM SCT120 M03/M06 A3014 RMK AO2
 
K21D - Lake Elmo, Minnesota, USA
Distance from station: ESE 28mi, 46km
Updated: 04/05/2020 4:55am
Clear
Clear
 Wind from calm
Wind: Calm
Temperature: 25°F , -4°C
Dew Point: 23°F , -5°C
Humidity: 93%
Barometer: 30.17 inHg , 1021.7 hPa
Clouds: Clear
Visibility: 10 miles , 16 km
2020/04/05 09:55 K21D 050955Z AUTO 00000KT 10SM CLR M04/M05 A3017 RMK AO2 TSNO
KSGS - South St Paul, Minnesota, USA
Distance from station: SE 28mi, 46km
Updated: 04/05/2020 4:56am
Clear
Clear
 Wind from calm
Wind: Calm
Temperature: 27°F , -3°C
Dew Point: 25°F , -4°C
Humidity: 93%
Barometer: 30.17 inHg , 1021.7 hPa
Clouds: Clear
Visibility: 10 miles , 16 km
2020/04/05 09:56 KSGS 050956Z AUTO 00000KT 10SM CLR M03/M04 A3017 RMK AO2 T10261039
 
KMGG - Maple Lake, Minnesota, USA
Distance from station: W 30mi, 48km
Updated: 04/05/2020 4:55am

 Wind from calm
Wind: Calm
Temperature: 28°F , -2°C
Dew Point: 27°F , -3°C
Humidity: 93%
Barometer: 30.15 inHg , 1021 hPa
Visibility: 10 miles , 16 km
2020/04/05 09:55 KMGG 050955Z AUTO 00000KT 10SM M02/M03 A3015 RMK AO2 T10161030
KOEO - Osceola, Wisconsin, USA
Distance from station: ENE 34mi, 55km
Updated: 04/05/2020 4:55am
Clear
Clear
 Wind from calm
Wind: Calm
Temperature: 23°F , -5°C
Dew Point: 23°F , -5°C
Humidity: 100%
Barometer: 30.20 inHg , 1022.7 hPa
Clouds: Clear
Visibility: 10 miles , 16 km
2020/04/05 09:55 KOEO 050955Z AUTO 00000KT 10SM CLR M05/M05 A3020 RMK AO2 T10501054
 
KLVN - Mnpls/Airlake, Minnesota, USA
Distance from station: S 39mi, 63km
Updated: 04/05/2020 4:55am
Clear
Clear
 Wind from calm
Wind: Calm
Temperature: 27°F , -3°C
Dew Point: 27°F , -3°C
Humidity: 100%
Barometer: 30.16 inHg , 1021.3 hPa
Clouds: Clear
Visibility: 10 miles , 16 km
2020/04/05 09:55 KLVN 050955Z AUTO 00000KT 10SM CLR M03/M03 A3016 RMK AO2
KRNH - New Richmond Mun, Wisconsin, USA
Distance from station: E 41mi, 66km
Updated: 04/05/2020 4:55am
Clear
Clear
 Wind from ESE
Wind: ESE 3 mph , 6 km/h
Temperature: 25°F , -4°C
Dew Point: 21°F , -6°C
Humidity: 86%
Barometer: 30.17 inHg , 1021.7 hPa
Clouds: Clear
Visibility: 10 miles , 16 km
2020/04/05 09:55 KRNH 050955Z AUTO 12003KT 10SM CLR M04/M06 A3017 RMK AO2 T10411062
 
KROS - Rush City, Minnesota, USA
Distance from station: NNE 41mi, 66km
Updated: 04/05/2020 4:56am
Partly cloudy
Partly cloudy
 Wind from calm
Wind: Calm
Temperature: 25°F , -4°C
Dew Point: 21°F , -6°C
Humidity: 86%
Barometer: 30.16 inHg , 1021.3 hPa
Clouds: Partly cloudy
Visibility: 10 miles , 16 km
Cloud details: Partly cloudy 11000 ft
2020/04/05 09:56 KROS 050956Z AUTO 00000KT 10SM SCT110 M04/M06 A3016 RMK AO2 T10451062
KSTC - St. Cloud, Minnesota, USA
Distance from station: NW 41mi, 67km
Updated: 04/05/2020 4:53am
Overcast
Overcast
 Wind from SE
Wind: SE 6 mph , 9 km/h
Temperature: 30°F , -1°C
Wind Chill: 24°F , -4°C
Dew Point: 21°F , -6°C
Humidity: 69%
Barometer: 30.13 inHg , 1020.3 hPa
Clouds: Overcast
Visibility: 10 miles , 16 km
Cloud details: Overcast 11000 ft
2020/04/05 09:53 KSTC 050953Z AUTO 14005KT 10SM OVC110 M01/M06 A3013 RMK AO2 SLP223 T10111056
 
KGYL - Glencoe, Minnesota, USA
Distance from station: SW 46mi, 74km
Updated: 04/05/2020 4:55am
Clear
Clear
 Wind from ESE
Wind: ESE 5 mph , 7 km/h
Temperature: 27°F , -3°C
Wind Chill: 21°F , -6°C
Dew Point: 19°F , -7°C
Humidity: 74%
Barometer: 30.14 inHg , 1020.7 hPa
Clouds: Clear
Visibility: 10 miles , 16 km
2020/04/05 09:55 KGYL 050955Z AUTO 11004KT 10SM CLR M03/M07 A3014 RMK AO2 T10301071
KJMR - Mora, Minnesota, USA
Distance from station: N 48mi, 78km
Updated: 04/05/2020 4:56am
Clear
Clear
 Wind from calm
Wind: Calm
Temperature: 25°F , -4°C
Dew Point: 23°F , -5°C
Humidity: 93%
Barometer: 30.16 inHg , 1021.3 hPa
Clouds: Clear
Visibility: 7 miles , 11 km
2020/04/05 09:56 KJMR 050956Z AUTO 00000KT 7SM CLR M04/M05 A3016 RMK AO2